sensor_id;sensor_type;location;lat;lon;timestamp;P1;durP1;ratioP1;P2;durP2;ratioP2
46507;SDS011;32223;53.654;10.014;2022-12-07T00:01:12;18.25;;;10.35;;
46507;SDS011;32223;53.654;10.014;2022-12-07T00:03:43;19.15;;;10.65;;
46507;SDS011;32223;53.654;10.014;2022-12-07T00:06:11;21.75;;;10.68;;
46507;SDS011;32223;53.654;10.014;2022-12-07T00:08:39;18.27;;;10.75;;
46507;SDS011;32223;53.654;10.014;2022-12-07T00:11:06;18.83;;;9.95;;
46507;SDS011;32223;53.654;10.014;2022-12-07T00:13:32;18.63;;;10.80;;
46507;SDS011;32223;53.654;10.014;2022-12-07T00:16:02;18.38;;;10.30;;
46507;SDS011;32223;53.654;10.014;2022-12-07T00:18:29;15.50;;;10.00;;
46507;SDS011;32223;53.654;10.014;2022-12-07T00:20:59;17.90;;;10.38;;
46507;SDS011;32223;53.654;10.014;2022-12-07T00:23:26;20.02;;;10.07;;
46507;SDS011;32223;53.654;10.014;2022-12-07T00:25:52;22.67;;;10.88;;
46507;SDS011;32223;53.654;10.014;2022-12-07T00:28:17;20.02;;;11.35;;
46507;SDS011;32223;53.654;10.014;2022-12-07T00:30:43;18.08;;;11.05;;
46507;SDS011;32223;53.654;10.014;2022-12-07T00:33:09;20.05;;;11.60;;
46507;SDS011;32223;53.654;10.014;2022-12-07T00:35:34;20.95;;;12.00;;
46507;SDS011;32223;53.654;10.014;2022-12-07T00:38:00;20.80;;;11.60;;
46507;SDS011;32223;53.654;10.014;2022-12-07T00:40:25;18.42;;;12.60;;
46507;SDS011;32223;53.654;10.014;2022-12-07T00:42:51;22.23;;;11.80;;
46507;SDS011;32223;53.654;10.014;2022-12-07T00:45:16;20.58;;;10.85;;
46507;SDS011;32223;53.654;10.014;2022-12-07T00:47:42;24.45;;;13.95;;
46507;SDS011;32223;53.654;10.014;2022-12-07T00:50:08;23.67;;;11.88;;
46507;SDS011;32223;53.654;10.014;2022-12-07T00:52:33;17.13;;;10.10;;
46507;SDS011;32223;53.654;10.014;2022-12-07T00:54:59;19.90;;;10.85;;
46507;SDS011;32223;53.654;10.014;2022-12-07T00:57:24;17.88;;;10.70;;
46507;SDS011;32223;53.654;10.014;2022-12-07T00:59:50;19.33;;;10.88;;
46507;SDS011;32223;53.654;10.014;2022-12-07T01:02:20;20.13;;;11.75;;
46507;SDS011;32223;53.654;10.014;2022-12-07T01:04:46;19.92;;;11.38;;
46507;SDS011;32223;53.654;10.014;2022-12-07T01:07:11;19.13;;;10.40;;
46507;SDS011;32223;53.654;10.014;2022-12-07T01:09:37;16.48;;;9.60;;
46507;SDS011;32223;53.654;10.014;2022-12-07T01:12:03;17.85;;;9.10;;
46507;SDS011;32223;53.654;10.014;2022-12-07T01:14:28;16.00;;;9.95;;
46507;SDS011;32223;53.654;10.014;2022-12-07T01:16:54;16.38;;;9.45;;
46507;SDS011;32223;53.654;10.014;2022-12-07T01:19:19;15.10;;;8.45;;
46507;SDS011;32223;53.654;10.014;2022-12-07T01:21:45;14.68;;;8.60;;
46507;SDS011;32223;53.654;10.014;2022-12-07T01:24:11;14.43;;;9.23;;
46507;SDS011;32223;53.654;10.014;2022-12-07T01:26:36;12.55;;;8.15;;
46507;SDS011;32223;53.654;10.014;2022-12-07T01:29:02;17.08;;;9.05;;
46507;SDS011;32223;53.654;10.014;2022-12-07T01:31:28;17.67;;;7.68;;
46507;SDS011;32223;53.654;10.014;2022-12-07T01:33:56;13.48;;;8.25;;
46507;SDS011;32223;53.654;10.014;2022-12-07T01:36:24;14.82;;;7.28;;
46507;SDS011;32223;53.654;10.014;2022-12-07T01:38:57;12.82;;;7.10;;
46507;SDS011;32223;53.654;10.014;2022-12-07T01:41:25;14.10;;;7.72;;
46507;SDS011;32223;53.654;10.014;2022-12-07T01:46:47;12.68;;;6.20;;
46507;SDS011;32223;53.654;10.014;2022-12-07T01:49:30;12.60;;;6.97;;
46507;SDS011;32223;53.654;10.014;2022-12-07T01:54:37;11.05;;;7.25;;
46507;SDS011;32223;53.654;10.014;2022-12-07T01:57:03;14.80;;;6.47;;
46507;SDS011;32223;53.654;10.014;2022-12-07T01:59:31;10.57;;;6.43;;
46507;SDS011;32223;53.654;10.014;2022-12-07T02:01:58;15.52;;;6.30;;
46507;SDS011;32223;53.654;10.014;2022-12-07T02:04:25;16.67;;;7.18;;
46507;SDS011;32223;53.654;10.014;2022-12-07T02:06:50;11.27;;;5.93;;
46507;SDS011;32223;53.654;10.014;2022-12-07T02:09:17;12.90;;;6.28;;
46507;SDS011;32223;53.654;10.014;2022-12-07T02:11:42;13.40;;;6.90;;
46507;SDS011;32223;53.654;10.014;2022-12-07T02:14:08;12.10;;;6.55;;
46507;SDS011;32223;53.654;10.014;2022-12-07T02:22:11;10.95;;;5.72;;
46507;SDS011;32223;53.654;10.014;2022-12-07T02:28:05;12.30;;;4.65;;
46507;SDS011;32223;53.654;10.014;2022-12-07T02:30:40;8.45;;;4.68;;
46507;SDS011;32223;53.654;10.014;2022-12-07T02:33:17;7.47;;;4.78;;
46507;SDS011;32223;53.654;10.014;2022-12-07T02:35:57;9.13;;;4.40;;
46507;SDS011;32223;53.654;10.014;2022-12-07T02:38:38;10.20;;;3.97;;
46507;SDS011;32223;53.654;10.014;2022-12-07T02:41:16;7.60;;;3.90;;
46507;SDS011;32223;53.654;10.014;2022-12-07T02:43:53;9.02;;;3.88;;
46507;SDS011;32223;53.654;10.014;2022-12-07T02:46:23;7.50;;;3.88;;
46507;SDS011;32223;53.654;10.014;2022-12-07T02:48:52;11.55;;;4.15;;
46507;SDS011;32223;53.654;10.014;2022-12-07T02:51:19;5.35;;;3.17;;
46507;SDS011;32223;53.654;10.014;2022-12-07T02:53:45;5.63;;;3.50;;
46507;SDS011;32223;53.654;10.014;2022-12-07T03:04:43;7.45;;;3.85;;
46507;SDS011;32223;53.654;10.014;2022-12-07T03:12:41;6.85;;;2.53;;
46507;SDS011;32223;53.654;10.014;2022-12-07T03:15:16;7.38;;;3.60;;
46507;SDS011;32223;53.654;10.014;2022-12-07T03:18:20;4.38;;;2.30;;
46507;SDS011;32223;53.654;10.014;2022-12-07T03:20:49;6.13;;;2.53;;
46507;SDS011;32223;53.654;10.014;2022-12-07T03:23:18;5.93;;;2.25;;
46507;SDS011;32223;53.654;10.014;2022-12-07T03:25:46;3.08;;;1.45;;
46507;SDS011;32223;53.654;10.014;2022-12-07T03:28:16;3.05;;;2.10;;
46507;SDS011;32223;53.654;10.014;2022-12-07T03:30:57;5.03;;;1.95;;
46507;SDS011;32223;53.654;10.014;2022-12-07T03:33:50;2.78;;;1.17;;
46507;SDS011;32223;53.654;10.014;2022-12-07T03:38:57;3.88;;;1.58;;
46507;SDS011;32223;53.654;10.014;2022-12-07T03:41:32;3.92;;;1.65;;
46507;SDS011;32223;53.654;10.014;2022-12-07T03:44:00;2.60;;;0.98;;
46507;SDS011;32223;53.654;10.014;2022-12-07T03:49:08;1.83;;;1.00;;
46507;SDS011;32223;53.654;10.014;2022-12-07T03:54:55;1.55;;;1.00;;
46507;SDS011;32223;53.654;10.014;2022-12-07T03:57:44;3.83;;;0.90;;
46507;SDS011;32223;53.654;10.014;2022-12-07T04:00:14;2.83;;;1.00;;
46507;SDS011;32223;53.654;10.014;2022-12-07T04:02:41;4.85;;;1.52;;
46507;SDS011;32223;53.654;10.014;2022-12-07T04:05:07;3.65;;;1.75;;
46507;SDS011;32223;53.654;10.014;2022-12-07T04:07:33;2.38;;;1.27;;
46507;SDS011;32223;53.654;10.014;2022-12-07T04:09:59;4.32;;;1.58;;
46507;SDS011;32223;53.654;10.014;2022-12-07T04:12:25;3.35;;;1.33;;
46507;SDS011;32223;53.654;10.014;2022-12-07T04:14:51;5.32;;;2.38;;
46507;SDS011;32223;53.654;10.014;2022-12-07T04:17:16;2.85;;;1.50;;
46507;SDS011;32223;53.654;10.014;2022-12-07T04:19:42;4.47;;;1.70;;
46507;SDS011;32223;53.654;10.014;2022-12-07T04:22:08;8.18;;;1.90;;
46507;SDS011;32223;53.654;10.014;2022-12-07T04:24:33;4.18;;;2.28;;
46507;SDS011;32223;53.654;10.014;2022-12-07T04:26:59;3.65;;;1.92;;
46507;SDS011;32223;53.654;10.014;2022-12-07T04:29:25;3.08;;;1.77;;
46507;SDS011;32223;53.654;10.014;2022-12-07T04:31:51;3.97;;;1.80;;
46507;SDS011;32223;53.654;10.014;2022-12-07T04:34:17;2.90;;;1.60;;
46507;SDS011;32223;53.654;10.014;2022-12-07T04:36:44;4.43;;;1.63;;
46507;SDS011;32223;53.654;10.014;2022-12-07T04:39:17;4.05;;;1.70;;
46507;SDS011;32223;53.654;10.014;2022-12-07T04:41:53;4.57;;;2.13;;
46507;SDS011;32223;53.654;10.014;2022-12-07T04:44:19;4.40;;;2.03;;
46507;SDS011;32223;53.654;10.014;2022-12-07T04:46:46;3.53;;;1.77;;
46507;SDS011;32223;53.654;10.014;2022-12-07T04:49:12;3.00;;;2.00;;
46507;SDS011;32223;53.654;10.014;2022-12-07T04:51:41;6.93;;;2.30;;
46507;SDS011;32223;53.654;10.014;2022-12-07T04:54:07;4.63;;;2.80;;
46507;SDS011;32223;53.654;10.014;2022-12-07T04:56:33;7.72;;;4.07;;
46507;SDS011;32223;53.654;10.014;2022-12-07T04:59:00;5.68;;;2.22;;
46507;SDS011;32223;53.654;10.014;2022-12-07T05:01:26;5.82;;;2.25;;
46507;SDS011;32223;53.654;10.014;2022-12-07T05:03:51;6.53;;;2.10;;
46507;SDS011;32223;53.654;10.014;2022-12-07T05:06:17;4.45;;;2.20;;
46507;SDS011;32223;53.654;10.014;2022-12-07T05:08:43;8.13;;;2.42;;
46507;SDS011;32223;53.654;10.014;2022-12-07T05:11:09;2.33;;;1.63;;
46507;SDS011;32223;53.654;10.014;2022-12-07T05:13:54;4.80;;;2.67;;
46507;SDS011;32223;53.654;10.014;2022-12-07T05:16:19;7.68;;;2.95;;
46507;SDS011;32223;53.654;10.014;2022-12-07T05:18:45;6.20;;;1.90;;
46507;SDS011;32223;53.654;10.014;2022-12-07T05:21:11;5.80;;;2.17;;
46507;SDS011;32223;53.654;10.014;2022-12-07T05:23:36;3.58;;;1.80;;
46507;SDS011;32223;53.654;10.014;2022-12-07T05:26:02;3.85;;;1.92;;
46507;SDS011;32223;53.654;10.014;2022-12-07T05:28:27;5.47;;;2.22;;
46507;SDS011;32223;53.654;10.014;2022-12-07T05:30:53;6.10;;;2.63;;
46507;SDS011;32223;53.654;10.014;2022-12-07T05:33:18;4.72;;;2.60;;
46507;SDS011;32223;53.654;10.014;2022-12-07T05:35:44;4.93;;;2.97;;
46507;SDS011;32223;53.654;10.014;2022-12-07T05:38:09;5.45;;;2.83;;
46507;SDS011;32223;53.654;10.014;2022-12-07T05:40:36;6.10;;;2.40;;
46507;SDS011;32223;53.654;10.014;2022-12-07T05:43:01;5.70;;;2.67;;
46507;SDS011;32223;53.654;10.014;2022-12-07T05:45:27;7.72;;;2.63;;
46507;SDS011;32223;53.654;10.014;2022-12-07T05:47:53;3.85;;;2.42;;
46507;SDS011;32223;53.654;10.014;2022-12-07T05:50:18;4.47;;;2.45;;
46507;SDS011;32223;53.654;10.014;2022-12-07T05:52:44;3.08;;;2.00;;
46507;SDS011;32223;53.654;10.014;2022-12-07T05:55:10;5.07;;;2.60;;
46507;SDS011;32223;53.654;10.014;2022-12-07T05:57:35;3.78;;;2.20;;
46507;SDS011;32223;53.654;10.014;2022-12-07T06:00:01;5.57;;;2.85;;
46507;SDS011;32223;53.654;10.014;2022-12-07T06:02:28;5.90;;;3.05;;
46507;SDS011;32223;53.654;10.014;2022-12-07T06:04:53;3.92;;;2.25;;
46507;SDS011;32223;53.654;10.014;2022-12-07T06:07:19;5.93;;;3.10;;
46507;SDS011;32223;53.654;10.014;2022-12-07T06:09:45;5.57;;;2.30;;
46507;SDS011;32223;53.654;10.014;2022-12-07T06:12:11;7.25;;;2.88;;
46507;SDS011;32223;53.654;10.014;2022-12-07T06:14:55;8.55;;;3.20;;
46507;SDS011;32223;53.654;10.014;2022-12-07T06:17:21;6.63;;;2.70;;
46507;SDS011;32223;53.654;10.014;2022-12-07T06:19:47;5.03;;;2.80;;
46507;SDS011;32223;53.654;10.014;2022-12-07T06:22:12;10.63;;;3.40;;
46507;SDS011;32223;53.654;10.014;2022-12-07T06:24:39;6.72;;;3.13;;
46507;SDS011;32223;53.654;10.014;2022-12-07T06:27:05;5.20;;;2.58;;
46507;SDS011;32223;53.654;10.014;2022-12-07T06:29:31;7.10;;;3.60;;
46507;SDS011;32223;53.654;10.014;2022-12-07T06:31:57;6.30;;;3.40;;
46507;SDS011;32223;53.654;10.014;2022-12-07T06:34:23;10.00;;;3.70;;
46507;SDS011;32223;53.654;10.014;2022-12-07T06:36:51;7.95;;;3.72;;
46507;SDS011;32223;53.654;10.014;2022-12-07T06:39:24;6.28;;;3.25;;
46507;SDS011;32223;53.654;10.014;2022-12-07T06:41:51;7.85;;;3.45;;
46507;SDS011;32223;53.654;10.014;2022-12-07T06:44:17;7.25;;;3.08;;
46507;SDS011;32223;53.654;10.014;2022-12-07T06:46:43;8.75;;;3.53;;
46507;SDS011;32223;53.654;10.014;2022-12-07T06:49:09;7.97;;;3.00;;
46507;SDS011;32223;53.654;10.014;2022-12-07T06:51:35;9.05;;;2.85;;
46507;SDS011;32223;53.654;10.014;2022-12-07T06:54:02;7.55;;;3.58;;
46507;SDS011;32223;53.654;10.014;2022-12-07T06:56:29;7.70;;;3.83;;
46507;SDS011;32223;53.654;10.014;2022-12-07T06:58:54;5.72;;;3.38;;
46507;SDS011;32223;53.654;10.014;2022-12-07T07:01:20;8.95;;;4.38;;
46507;SDS011;32223;53.654;10.014;2022-12-07T07:03:46;9.20;;;2.47;;
46507;SDS011;32223;53.654;10.014;2022-12-07T07:06:12;11.05;;;4.15;;
46507;SDS011;32223;53.654;10.014;2022-12-07T07:08:38;7.18;;;3.70;;
46507;SDS011;32223;53.654;10.014;2022-12-07T07:11:04;7.40;;;3.75;;
46507;SDS011;32223;53.654;10.014;2022-12-07T07:13:31;4.97;;;2.88;;
46507;SDS011;32223;53.654;10.014;2022-12-07T07:15:57;6.45;;;2.97;;
46507;SDS011;32223;53.654;10.014;2022-12-07T07:18:23;5.68;;;2.63;;
46507;SDS011;32223;53.654;10.014;2022-12-07T07:20:50;4.80;;;2.50;;
46507;SDS011;32223;53.654;10.014;2022-12-07T07:23:16;5.07;;;1.90;;
46507;SDS011;32223;53.654;10.014;2022-12-07T07:25:42;6.88;;;2.88;;
46507;SDS011;32223;53.654;10.014;2022-12-07T07:28:07;7.07;;;3.45;;
46507;SDS011;32223;53.654;10.014;2022-12-07T07:30:33;6.05;;;2.78;;
46507;SDS011;32223;53.654;10.014;2022-12-07T07:32:59;6.85;;;2.67;;
46507;SDS011;32223;53.654;10.014;2022-12-07T07:35:27;4.63;;;2.08;;
46507;SDS011;32223;53.654;10.014;2022-12-07T07:37:54;5.65;;;2.17;;
46507;SDS011;32223;53.654;10.014;2022-12-07T07:40:23;7.22;;;2.20;;
46507;SDS011;32223;53.654;10.014;2022-12-07T07:42:49;4.00;;;1.80;;
46507;SDS011;32223;53.654;10.014;2022-12-07T07:45:16;5.60;;;1.85;;
46507;SDS011;32223;53.654;10.014;2022-12-07T07:47:42;5.55;;;2.42;;
46507;SDS011;32223;53.654;10.014;2022-12-07T07:50:08;7.95;;;2.80;;
46507;SDS011;32223;53.654;10.014;2022-12-07T07:52:34;7.93;;;2.28;;
46507;SDS011;32223;53.654;10.014;2022-12-07T07:55:00;4.38;;;1.80;;
46507;SDS011;32223;53.654;10.014;2022-12-07T07:57:28;4.32;;;1.67;;
46507;SDS011;32223;53.654;10.014;2022-12-07T07:59:54;4.53;;;1.40;;
46507;SDS011;32223;53.654;10.014;2022-12-07T08:02:20;2.88;;;1.30;;
46507;SDS011;32223;53.654;10.014;2022-12-07T08:04:46;4.50;;;2.00;;
46507;SDS011;32223;53.654;10.014;2022-12-07T08:07:13;6.85;;;2.10;;
46507;SDS011;32223;53.654;10.014;2022-12-07T08:09:40;6.72;;;1.65;;
46507;SDS011;32223;53.654;10.014;2022-12-07T08:12:07;5.13;;;1.83;;
46507;SDS011;32223;53.654;10.014;2022-12-07T08:14:33;4.25;;;1.73;;
46507;SDS011;32223;53.654;10.014;2022-12-07T08:16:59;5.15;;;1.52;;
46507;SDS011;32223;53.654;10.014;2022-12-07T08:19:26;4.85;;;1.30;;
46507;SDS011;32223;53.654;10.014;2022-12-07T08:21:51;4.38;;;1.10;;
46507;SDS011;32223;53.654;10.014;2022-12-07T08:24:17;2.72;;;1.48;;
46507;SDS011;32223;53.654;10.014;2022-12-07T08:26:43;3.92;;;1.27;;
46507;SDS011;32223;53.654;10.014;2022-12-07T08:29:09;3.10;;;1.10;;
46507;SDS011;32223;53.654;10.014;2022-12-07T08:31:34;5.90;;;1.60;;
46507;SDS011;32223;53.654;10.014;2022-12-07T08:34:00;8.52;;;2.10;;
46507;SDS011;32223;53.654;10.014;2022-12-07T08:36:26;5.72;;;1.50;;
46507;SDS011;32223;53.654;10.014;2022-12-07T08:38:52;5.85;;;1.30;;
46507;SDS011;32223;53.654;10.014;2022-12-07T08:41:18;4.18;;;1.52;;
46507;SDS011;32223;53.654;10.014;2022-12-07T08:43:43;2.80;;;1.05;;
46507;SDS011;32223;53.654;10.014;2022-12-07T08:46:10;1.85;;;1.05;;
46507;SDS011;32223;53.654;10.014;2022-12-07T08:49:05;3.42;;;1.13;;
46507;SDS011;32223;53.654;10.014;2022-12-07T08:51:35;1.95;;;0.98;;
46507;SDS011;32223;53.654;10.014;2022-12-07T08:54:03;3.28;;;0.98;;
46507;SDS011;32223;53.654;10.014;2022-12-07T08:56:30;5.30;;;1.63;;
46507;SDS011;32223;53.654;10.014;2022-12-07T08:58:56;4.38;;;1.40;;
46507;SDS011;32223;53.654;10.014;2022-12-07T09:01:23;4.10;;;1.23;;
46507;SDS011;32223;53.654;10.014;2022-12-07T09:03:48;5.18;;;2.00;;
46507;SDS011;32223;53.654;10.014;2022-12-07T09:06:14;5.57;;;1.77;;
46507;SDS011;32223;53.654;10.014;2022-12-07T09:08:41;4.45;;;1.50;;
46507;SDS011;32223;53.654;10.014;2022-12-07T09:11:10;5.55;;;1.60;;
46507;SDS011;32223;53.654;10.014;2022-12-07T09:13:36;3.05;;;1.05;;
46507;SDS011;32223;53.654;10.014;2022-12-07T09:16:01;2.63;;;1.27;;
46507;SDS011;32223;53.654;10.014;2022-12-07T09:18:27;6.40;;;1.40;;
46507;SDS011;32223;53.654;10.014;2022-12-07T09:20:53;7.13;;;2.67;;
46507;SDS011;32223;53.654;10.014;2022-12-07T09:23:18;12.88;;;5.22;;
46507;SDS011;32223;53.654;10.014;2022-12-07T09:25:44;9.73;;;4.30;;
46507;SDS011;32223;53.654;10.014;2022-12-07T09:28:10;5.63;;;1.77;;
46507;SDS011;32223;53.654;10.014;2022-12-07T09:30:35;7.00;;;1.73;;
46507;SDS011;32223;53.654;10.014;2022-12-07T09:33:01;5.57;;;1.70;;
46507;SDS011;32223;53.654;10.014;2022-12-07T09:35:27;6.18;;;1.80;;
46507;SDS011;32223;53.654;10.014;2022-12-07T09:37:53;5.38;;;1.60;;
46507;SDS011;32223;53.654;10.014;2022-12-07T09:40:19;3.63;;;1.75;;
46507;SDS011;32223;53.654;10.014;2022-12-07T09:42:48;5.15;;;1.17;;
46507;SDS011;32223;53.654;10.014;2022-12-07T09:45:37;4.38;;;2.05;;
46507;SDS011;32223;53.654;10.014;2022-12-07T09:50:29;6.63;;;2.15;;
46507;SDS011;32223;53.654;10.014;2022-12-07T09:53:06;5.05;;;1.60;;
46507;SDS011;32223;53.654;10.014;2022-12-07T09:55:33;6.45;;;1.25;;
46507;SDS011;32223;53.654;10.014;2022-12-07T09:58:01;6.35;;;2.40;;
46507;SDS011;32223;53.654;10.014;2022-12-07T10:00:27;6.35;;;1.38;;
46507;SDS011;32223;53.654;10.014;2022-12-07T10:03:01;3.40;;;0.88;;
46507;SDS011;32223;53.654;10.014;2022-12-07T10:05:31;7.35;;;1.75;;
46507;SDS011;32223;53.654;10.014;2022-12-07T10:08:00;11.55;;;4.28;;
46507;SDS011;32223;53.654;10.014;2022-12-07T10:10:29;3.85;;;2.13;;
46507;SDS011;32223;53.654;10.014;2022-12-07T10:20:47;5.15;;;1.00;;
46507;SDS011;32223;53.654;10.014;2022-12-07T10:23:14;5.53;;;1.50;;
46507;SDS011;32223;53.654;10.014;2022-12-07T10:25:41;5.18;;;0.90;;
46507;SDS011;32223;53.654;10.014;2022-12-07T10:30:33;3.92;;;1.20;;
46507;SDS011;32223;53.654;10.014;2022-12-07T10:35:56;6.60;;;1.40;;
46507;SDS011;32223;53.654;10.014;2022-12-07T10:38:24;3.80;;;1.55;;
46507;SDS011;32223;53.654;10.014;2022-12-07T10:41:02;6.70;;;0.90;;
46507;SDS011;32223;53.654;10.014;2022-12-07T10:43:30;5.63;;;1.50;;
46507;SDS011;32223;53.654;10.014;2022-12-07T10:52:19;5.10;;;1.52;;
46507;SDS011;32223;53.654;10.014;2022-12-07T11:00:19;3.08;;;1.05;;
46507;SDS011;32223;53.654;10.014;2022-12-07T11:05:45;2.40;;;0.60;;
46507;SDS011;32223;53.654;10.014;2022-12-07T11:10:53;4.13;;;1.50;;
46507;SDS011;32223;53.654;10.014;2022-12-07T11:16:21;9.93;;;1.35;;
46507;SDS011;32223;53.654;10.014;2022-12-07T11:21:53;5.53;;;1.40;;
46507;SDS011;32223;53.654;10.014;2022-12-07T11:27:02;2.28;;;0.93;;
46507;SDS011;32223;53.654;10.014;2022-12-07T11:30:07;4.30;;;1.10;;
46507;SDS011;32223;53.654;10.014;2022-12-07T11:37:49;4.72;;;0.90;;
46507;SDS011;32223;53.654;10.014;2022-12-07T11:40:30;3.78;;;1.00;;
46507;SDS011;32223;53.654;10.014;2022-12-07T11:45:40;3.20;;;1.13;;
46507;SDS011;32223;53.654;10.014;2022-12-07T11:48:14;5.90;;;1.58;;
46507;SDS011;32223;53.654;10.014;2022-12-07T11:50:52;6.05;;;1.00;;
46507;SDS011;32223;53.654;10.014;2022-12-07T11:53:30;6.75;;;1.42;;
46507;SDS011;32223;53.654;10.014;2022-12-07T11:56:09;5.80;;;1.38;;
46507;SDS011;32223;53.654;10.014;2022-12-07T12:06:34;9.00;;;0.93;;
46507;SDS011;32223;53.654;10.014;2022-12-07T12:14:48;8.68;;;1.27;;
46507;SDS011;32223;53.654;10.014;2022-12-07T12:20:36;6.60;;;1.23;;
46507;SDS011;32223;53.654;10.014;2022-12-07T12:23:19;6.88;;;1.10;;
46507;SDS011;32223;53.654;10.014;2022-12-07T12:26:05;6.75;;;1.45;;
46507;SDS011;32223;53.654;10.014;2022-12-07T12:29:06;3.15;;;1.20;;
46507;SDS011;32223;53.654;10.014;2022-12-07T12:31:46;9.75;;;1.55;;
46507;SDS011;32223;53.654;10.014;2022-12-07T12:34:33;7.05;;;1.42;;
46507;SDS011;32223;53.654;10.014;2022-12-07T12:36:59;4.75;;;1.60;;
46507;SDS011;32223;53.654;10.014;2022-12-07T12:39:24;7.15;;;1.48;;
46507;SDS011;32223;53.654;10.014;2022-12-07T12:41:51;6.07;;;1.85;;
46507;SDS011;32223;53.654;10.014;2022-12-07T12:51:45;4.18;;;1.65;;
46507;SDS011;32223;53.654;10.014;2022-12-07T12:57:34;4.40;;;1.08;;
46507;SDS011;32223;53.654;10.014;2022-12-07T13:00:02;3.00;;;1.33;;
46507;SDS011;32223;53.654;10.014;2022-12-07T13:02:34;5.38;;;1.33;;
46507;SDS011;32223;53.654;10.014;2022-12-07T13:13:00;3.78;;;0.68;;
46507;SDS011;32223;53.654;10.014;2022-12-07T13:15:39;4.50;;;0.98;;
46507;SDS011;32223;53.654;10.014;2022-12-07T13:23:36;5.60;;;1.00;;
46507;SDS011;32223;53.654;10.014;2022-12-07T13:26:20;6.70;;;1.23;;
46507;SDS011;32223;53.654;10.014;2022-12-07T13:31:36;6.88;;;0.85;;
46507;SDS011;32223;53.654;10.014;2022-12-07T13:37:08;3.25;;;0.80;;
46507;SDS011;32223;53.654;10.014;2022-12-07T13:40:17;3.78;;;1.48;;
46507;SDS011;32223;53.654;10.014;2022-12-07T13:42:45;2.45;;;0.75;;
46507;SDS011;32223;53.654;10.014;2022-12-07T13:45:21;2.70;;;0.77;;
46507;SDS011;32223;53.654;10.014;2022-12-07T13:48:21;6.93;;;1.42;;
46507;SDS011;32223;53.654;10.014;2022-12-07T13:50:56;5.45;;;0.73;;
46507;SDS011;32223;53.654;10.014;2022-12-07T13:53:22;5.10;;;1.40;;
46507;SDS011;32223;53.654;10.014;2022-12-07T13:55:49;8.75;;;2.05;;
46507;SDS011;32223;53.654;10.014;2022-12-07T13:58:15;6.35;;;1.35;;
46507;SDS011;32223;53.654;10.014;2022-12-07T14:00:41;2.63;;;1.45;;
46507;SDS011;32223;53.654;10.014;2022-12-07T14:05:39;7.57;;;1.88;;
46507;SDS011;32223;53.654;10.014;2022-12-07T14:10:52;3.92;;;0.95;;
46507;SDS011;32223;53.654;10.014;2022-12-07T14:13:34;4.55;;;0.85;;
46507;SDS011;32223;53.654;10.014;2022-12-07T14:16:01;5.95;;;0.90;;
46507;SDS011;32223;53.654;10.014;2022-12-07T14:18:29;6.30;;;1.90;;
46507;SDS011;32223;53.654;10.014;2022-12-07T14:23:36;5.25;;;1.00;;
46507;SDS011;32223;53.654;10.014;2022-12-07T14:26:12;3.25;;;1.02;;
46507;SDS011;32223;53.654;10.014;2022-12-07T14:28:40;4.00;;;1.20;;
46507;SDS011;32223;53.654;10.014;2022-12-07T14:31:24;3.58;;;0.95;;
46507;SDS011;32223;53.654;10.014;2022-12-07T14:33:51;2.70;;;1.00;;
46507;SDS011;32223;53.654;10.014;2022-12-07T14:36:16;1.90;;;0.75;;
46507;SDS011;32223;53.654;10.014;2022-12-07T14:38:42;5.60;;;0.85;;
46507;SDS011;32223;53.654;10.014;2022-12-07T14:41:12;3.33;;;1.02;;
46507;SDS011;32223;53.654;10.014;2022-12-07T14:43:59;4.65;;;1.80;;
46507;SDS011;32223;53.654;10.014;2022-12-07T14:46:25;4.28;;;0.80;;
46507;SDS011;32223;53.654;10.014;2022-12-07T14:48:51;3.80;;;0.80;;
46507;SDS011;32223;53.654;10.014;2022-12-07T14:51:16;1.88;;;0.80;;
46507;SDS011;32223;53.654;10.014;2022-12-07T14:53:44;3.10;;;0.68;;
46507;SDS011;32223;53.654;10.014;2022-12-07T14:56:13;3.95;;;0.60;;
46507;SDS011;32223;53.654;10.014;2022-12-07T14:58:39;2.08;;;0.50;;
46507;SDS011;32223;53.654;10.014;2022-12-07T15:01:06;3.95;;;0.60;;
46507;SDS011;32223;53.654;10.014;2022-12-07T15:03:32;1.55;;;0.52;;
46507;SDS011;32223;53.654;10.014;2022-12-07T15:05:59;2.65;;;0.50;;
46507;SDS011;32223;53.654;10.014;2022-12-07T15:08:26;3.33;;;1.05;;
46507;SDS011;32223;53.654;10.014;2022-12-07T15:10:51;4.25;;;1.15;;
46507;SDS011;32223;53.654;10.014;2022-12-07T15:13:17;2.60;;;0.75;;
46507;SDS011;32223;53.654;10.014;2022-12-07T15:16:01;5.28;;;1.20;;
46507;SDS011;32223;53.654;10.014;2022-12-07T15:18:30;1.85;;;0.80;;
46507;SDS011;32223;53.654;10.014;2022-12-07T15:20:55;1.75;;;0.60;;
46507;SDS011;32223;53.654;10.014;2022-12-07T15:23:21;4.00;;;0.90;;
46507;SDS011;32223;53.654;10.014;2022-12-07T15:25:47;1.98;;;0.60;;
46507;SDS011;32223;53.654;10.014;2022-12-07T15:28:14;3.47;;;0.63;;
46507;SDS011;32223;53.654;10.014;2022-12-07T15:30:40;4.32;;;1.20;;
46507;SDS011;32223;53.654;10.014;2022-12-07T15:33:10;4.43;;;0.93;;
46507;SDS011;32223;53.654;10.014;2022-12-07T15:35:40;6.35;;;0.80;;
46507;SDS011;32223;53.654;10.014;2022-12-07T15:38:06;2.40;;;0.82;;
46507;SDS011;32223;53.654;10.014;2022-12-07T15:40:33;6.47;;;1.23;;
46507;SDS011;32223;53.654;10.014;2022-12-07T15:42:59;10.60;;;2.10;;
46507;SDS011;32223;53.654;10.014;2022-12-07T15:45:25;3.08;;;0.82;;
46507;SDS011;32223;53.654;10.014;2022-12-07T15:47:51;5.18;;;1.55;;
46507;SDS011;32223;53.654;10.014;2022-12-07T15:50:16;2.88;;;1.00;;
46507;SDS011;32223;53.654;10.014;2022-12-07T15:52:43;3.83;;;1.08;;
46507;SDS011;32223;53.654;10.014;2022-12-07T15:55:09;3.92;;;1.27;;
46507;SDS011;32223;53.654;10.014;2022-12-07T15:57:35;3.67;;;1.50;;
46507;SDS011;32223;53.654;10.014;2022-12-07T16:00:06;4.43;;;1.50;;
46507;SDS011;32223;53.654;10.014;2022-12-07T16:02:33;3.15;;;1.35;;
46507;SDS011;32223;53.654;10.014;2022-12-07T16:04:59;5.32;;;1.55;;
46507;SDS011;32223;53.654;10.014;2022-12-07T16:07:25;5.10;;;1.95;;
46507;SDS011;32223;53.654;10.014;2022-12-07T16:09:50;5.32;;;1.75;;
46507;SDS011;32223;53.654;10.014;2022-12-07T16:12:16;5.05;;;1.67;;
46507;SDS011;32223;53.654;10.014;2022-12-07T16:14:42;4.90;;;1.98;;
46507;SDS011;32223;53.654;10.014;2022-12-07T16:17:08;7.88;;;2.95;;
46507;SDS011;32223;53.654;10.014;2022-12-07T16:19:35;5.95;;;2.58;;
46507;SDS011;32223;53.654;10.014;2022-12-07T16:22:01;4.80;;;1.42;;
46507;SDS011;32223;53.654;10.014;2022-12-07T16:24:28;5.20;;;2.15;;
46507;SDS011;32223;53.654;10.014;2022-12-07T16:26:53;7.63;;;2.38;;
46507;SDS011;32223;53.654;10.014;2022-12-07T16:29:20;9.82;;;4.13;;
46507;SDS011;32223;53.654;10.014;2022-12-07T16:31:46;8.63;;;2.80;;
46507;SDS011;32223;53.654;10.014;2022-12-07T16:34:12;6.72;;;2.75;;
46507;SDS011;32223;53.654;10.014;2022-12-07T16:36:38;7.43;;;2.58;;
46507;SDS011;32223;53.654;10.014;2022-12-07T16:39:04;8.93;;;3.03;;
46507;SDS011;32223;53.654;10.014;2022-12-07T16:41:30;7.47;;;2.72;;
46507;SDS011;32223;53.654;10.014;2022-12-07T16:43:56;12.30;;;5.00;;
46507;SDS011;32223;53.654;10.014;2022-12-07T16:46:22;8.07;;;2.70;;
46507;SDS011;32223;53.654;10.014;2022-12-07T16:48:47;5.55;;;2.17;;
46507;SDS011;32223;53.654;10.014;2022-12-07T16:51:13;5.78;;;2.53;;
46507;SDS011;32223;53.654;10.014;2022-12-07T16:53:40;4.28;;;2.67;;
46507;SDS011;32223;53.654;10.014;2022-12-07T16:56:14;7.85;;;3.00;;
46507;SDS011;32223;53.654;10.014;2022-12-07T16:58:41;4.70;;;2.22;;
46507;SDS011;32223;53.654;10.014;2022-12-07T17:01:15;5.30;;;2.28;;